Etusivu
METAR-TAF:

METAR-TAF

Lentoasemat :

Don Muangin kansainvälinen lentoasema

Bangkok, Thaimaa

Leveyspiiri: 13-54-45N, Pituuspiiri: 100-36-24E, korkeus merenpinnasta: 4 m

Tämänhetkinen sää

Tämä raportti tehtiin 28 minuuttia sitten, kello 07.30 UTC
Tuuli 5 kn etelästä, vaihdellen idän/kaakon ja etelän/lounaan välillä
Lämpötila 37°C
Kosteus 45%
Ilmanpaine 1006 hPa
Näkyvyys 10 km tai enemmän
Muutamia pilviä 2000 ft:n korkeudessa
Hajanaisia pilviä 4000 ft:n korkeudessa

METAR: VTBD 240730Z 17005KT 120V210 9999 FEW020 SCT040 37/23 Q1006 NOSIG

Aika: 14:58 (07:58 UTC)

Sääennuste

Tämä raportti tehtiin 2 tuntia ja 58 minuuttia sitten, kello 05.00 UTC
Ennuste voimassa 24. päivästä klo 06 UTC - 25. päivään klo 12 UTC
Tuuli 8 kn etelästä
Näkyvyys 10 km tai enemmän
Muutamia pilviä 2000 ft:n korkeudessa

TAF: VTBD 240500Z 2406/2512 19008KT 9999 FEW020

Säähavainnot ja -ennusteet yli 4000 lentoasemalta (METAR- ja TAF-raportit).

Käytössä olevat sääasemat on merkitty karttaan keltaisilla ja punaisilla pisteillä.

Aseta hiiri pisteen päälle nähdäksesi sääaseman nimen.

Klikkaa sitten nähdäksesi säähavainnot ja -ennusteet.

Kartan vaihtaminen: klikkaa mustalla rastilla varustettuja vihreitä pisteitä, niin voit zoomata sisään; viivalla varustettua vihreää pistettä, niin voit zoomata ulos tai vihreitä nuolia, niin pääset viereisille kartoille.


METAR-TAF: